Time;durP1;ratioP1;P1;durP2;ratioP2;P2;SDS_P1;SDS_P2;PMS_P1;PMS_P2;Temp;Humidity;BMP_temperature;BMP_pressure;BME280_temperature;BME280_humidity;BME280_pressure;Samples;Min_cycle;Max_cycle;Signal;HPM_P1;HPM_P2
2021/08/31 08:35:13;;;;;;;11.45;10.07;;;;;;;;;;6282400;22;20023;-80
2021/08/31 08:38:35;;;;;;;10.57;9.57;;;;;;;;;;6292005;22;20063;-87
2021/08/31 08:41:51;;;;;;;10.90;9.80;;;;;;;;;;6199252;23;20037;-87
2021/08/31 08:45:11;;;;;;;11.27;10.13;;;;;;;;;;6212109;23;20004;-87
2021/08/31 10:18:32;;;;;;;11.35;8.50;;;;;;;;;;6244215;22;20902;-80
2021/08/31 10:21:03;;;;;;;10.23;8.38;;;;;;;;;;6277518;22;20099;-80
2021/08/31 10:23:46;;;;;;;10.73;8.98;;;;;;;;;;6274684;22;19996;-79
2021/08/31 10:26:28;;;;;;;10.55;8.30;;;;;;;;;;6275428;22;20000;-80
2021/08/31 10:29:21;;;;;;;9.63;8.65;;;;;;;;;;6275432;22;20003;-80
2021/08/31 10:31:51;;;;;;;11.48;9.20;;;;;;;;;;6276722;22;20045;-81
2021/08/31 10:34:30;;;;;;;10.18;9.18;;;;;;;;;;6275843;22;20441;-81
2021/08/31 10:37:15;;;;;;;11.02;8.73;;;;;;;;;;6248730;22;20000;-79
2021/08/31 10:39:51;;;;;;;9.98;8.35;;;;;;;;;;6274891;22;20023;-79
2021/08/31 10:42:28;;;;;;;8.80;7.90;;;;;;;;;;6252921;22;20012;-80
2021/08/31 10:45:02;;;;;;;9.98;8.95;;;;;;;;;;6290013;22;20027;-82
2021/08/31 10:47:37;;;;;;;11.20;8.20;;;;;;;;;;6290826;22;20038;-79
2021/08/31 10:50:08;;;;;;;11.43;8.48;;;;;;;;;;6252929;22;20003;-80
2021/08/31 10:52:40;;;;;;;10.32;7.80;;;;;;;;;;6278875;22;19991;-79
2021/08/31 10:55:29;;;;;;;8.50;7.32;;;;;;;;;;6277565;22;19999;-79
2021/08/31 10:58:01;;;;;;;8.15;7.30;;;;;;;;;;6250132;22;20023;-80
2021/08/31 11:00:28;;;;;;;8.38;7.50;;;;;;;;;;6276352;22;20011;-81
2021/08/31 11:02:59;;;;;;;9.07;6.97;;;;;;;;;;6277081;22;20000;-79
2021/08/31 11:05:38;;;;;;;8.45;7.25;;;;;;;;;;6276870;22;20004;-80
2021/08/31 11:08:04;;;;;;;8.48;7.30;;;;;;;;;;6276512;22;20004;-80
2021/08/31 11:10:36;;;;;;;8.30;7.45;;;;;;;;;;6275943;22;20468;-78
2021/08/31 11:13:24;;;;;;;8.52;7.68;;;;;;;;;;6276290;22;20046;-80
2021/08/31 11:15:56;;;;;;;7.85;7.05;;;;;;;;;;6276738;22;20010;-80
2021/08/31 11:18:22;;;;;;;10.10;7.15;;;;;;;;;;6276471;22;20735;-80
2021/08/31 11:20:49;;;;;;;10.10;8.13;;;;;;;;;;6275161;22;20007;-81
2021/08/31 11:23:20;;;;;;;9.63;8.48;;;;;;;;;;6275493;22;20460;-79
2021/08/31 11:25:55;;;;;;;9.35;7.78;;;;;;;;;;6275774;22;20003;-79
2021/08/31 11:28:23;;;;;;;9.02;7.20;;;;;;;;;;6224461;22;20027;-81
2021/08/31 11:30:49;;;;;;;8.13;6.95;;;;;;;;;;6248788;22;19995;-80
2021/08/31 11:33:21;;;;;;;9.18;7.13;;;;;;;;;;6249656;22;20050;-80
2021/08/31 11:35:50;;;;;;;9.48;7.50;;;;;;;;;;6276732;22;20557;-80
2021/08/31 11:38:27;;;;;;;8.75;6.90;;;;;;;;;;6275967;22;20042;-82
2021/08/31 11:40:53;;;;;;;10.02;6.65;;;;;;;;;;6276094;22;20000;-81
2021/08/31 11:43:18;;;;;;;8.55;6.50;;;;;;;;;;6250735;22;20023;-81
2021/08/31 11:45:44;;;;;;;9.00;7.53;;;;;;;;;;6248682;22;20086;-81
2021/08/31 11:48:09;;;;;;;8.38;6.85;;;;;;;;;;6276429;22;19996;-82
2021/08/31 11:50:36;;;;;;;10.93;7.30;;;;;;;;;;6276215;22;20003;-82
2021/08/31 11:53:18;;;;;;;8.85;6.97;;;;;;;;;;6275179;22;19999;-81
2021/08/31 11:56:01;;;;;;;9.88;6.82;;;;;;;;;;6275824;22;20425;-81
2021/08/31 11:58:29;;;;;;;8.93;7.13;;;;;;;;;;6247248;22;20035;-81
2021/08/31 12:00:56;;;;;;;9.30;6.53;;;;;;;;;;6274057;22;20003;-82
2021/08/31 12:03:31;;;;;;;8.98;6.50;;;;;;;;;;6275769;22;20011;-82
2021/08/31 12:06:20;;;;;;;9.82;6.10;;;;;;;;;;6275166;22;20045;-80
2021/08/31 12:08:51;;;;;;;7.30;6.13;;;;;;;;;;6276782;22;19992;-81
2021/08/31 12:11:21;;;;;;;6.63;5.95;;;;;;;;;;6248505;22;20381;-81
2021/08/31 12:13:49;;;;;;;8.40;6.30;;;;;;;;;;6249560;22;20447;-81
2021/08/31 12:16:32;;;;;;;6.10;5.50;;;;;;;;;;6277657;22;20004;-81
2021/08/31 12:19:25;;;;;;;6.05;5.15;;;;;;;;;;6277073;22;20019;-82
2021/08/31 12:22:31;;;;;;;5.32;4.82;;;;;;;;;;6275573;22;20004;-82
2021/08/31 12:24:58;;;;;;;5.80;5.20;;;;;;;;;;6122264;23;20492;-82
2021/08/31 12:27:39;;;;;;;8.93;5.90;;;;;;;;;;6124782;23;20025;-83
2021/08/31 12:30:06;;;;;;;7.25;5.50;;;;;;;;;;6128168;23;20014;-82
2021/08/31 12:32:32;;;;;;;6.90;4.40;;;;;;;;;;6123624;23;20025;-81
2021/08/31 12:35:33;;;;;;;5.78;5.20;;;;;;;;;;6125750;23;20006;-83
2021/08/31 12:38:26;;;;;;;;;;;;;;;;;;6102502;23;20452;-82
2021/08/31 12:40:56;;;;;;;6.90;4.57;;;;;;;;;;6102693;23;19928;-82
2021/08/31 12:43:24;;;;;;;5.00;4.50;;;;;;;;;;6128027;23;20005;-82
2021/08/31 12:45:57;;;;;;;4.97;4.50;;;;;;;;;;6123885;23;20005;-81
2021/08/31 12:48:39;;;;;;;6.40;4.57;;;;;;;;;;6106230;23;20006;-81
2021/08/31 12:51:08;;;;;;;;;;;;;;;;;;6130091;23;20008;-81
2021/08/31 12:53:40;;;;;;;6.13;4.77;;;;;;;;;;6125618;23;19928;-81
2021/08/31 12:56:13;;;;;;;4.82;4.32;;;;;;;;;;6140571;23;20002;-81
2021/08/31 12:58:42;;;;;;;5.43;4.10;;;;;;;;;;6109249;23;20389;-82
2021/08/31 13:01:20;;;;;;;5.55;4.00;;;;;;;;;;6225808;22;20008;-81
2021/08/31 13:03:55;;;;;;;4.60;3.80;;;;;;;;;;6288572;22;20303;-81
2021/08/31 13:06:56;;;;;;;6.00;4.20;;;;;;;;;;6287865;22;19995;-81
2021/08/31 13:09:24;;;;;;;5.80;4.32;;;;;;;;;;6256657;22;20000;-82
2021/08/31 13:11:52;;;;;;;5.38;4.32;;;;;;;;;;6281734;22;19992;-81
2021/08/31 13:14:26;;;;;;;4.68;4.25;;;;;;;;;;6280312;22;20000;-82
2021/08/31 13:16:54;;;;;;;4.50;4.10;;;;;;;;;;6280270;22;20000;-81
2021/08/31 13:19:21;;;;;;;5.45;3.97;;;;;;;;;;6251272;22;20016;-82
2021/08/31 13:21:53;;;;;;;5.32;4.07;;;;;;;;;;6282806;22;20087;-83
2021/08/31 13:24:23;;;;;;;4.80;3.83;;;;;;;;;;6261416;22;20004;-82
2021/08/31 13:26:50;;;;;;;4.80;4.22;;;;;;;;;;6258234;22;20075;-82
2021/08/31 13:29:16;;;;;;;4.40;3.70;;;;;;;;;;6284474;22;20000;-82
2021/08/31 13:32:02;;;;;;;8.50;3.65;;;;;;;;;;6258346;22;20014;-82
2021/08/31 13:34:28;;;;;;;4.13;3.72;;;;;;;;;;6255202;22;20003;-81
2021/08/31 13:36:54;;;;;;;4.78;4.03;;;;;;;;;;6284883;22;19999;-82
2021/08/31 13:39:19;;;;;;;4.15;3.50;;;;;;;;;;6254641;22;20444;-81
2021/08/31 13:41:45;;;;;;;6.55;4.20;;;;;;;;;;6280206;22;20341;-81
2021/08/31 13:44:12;;;;;;;6.15;3.88;;;;;;;;;;6254415;22;20010;-80
2021/08/31 13:46:40;;;;;;;6.25;3.47;;;;;;;;;;6283600;22;19999;-81
2021/08/31 13:49:06;;;;;;;6.55;3.53;;;;;;;;;;6280948;22;20007;-81
2021/08/31 13:51:32;;;;;;;4.53;3.53;;;;;;;;;;6252064;22;20420;-80
2021/08/31 13:53:58;;;;;;;4.20;3.50;;;;;;;;;;6276427;22;20002;-81
2021/08/31 13:56:23;;;;;;;4.15;3.30;;;;;;;;;;6281139;22;20337;-81
2021/08/31 13:58:49;;;;;;;4.07;3.53;;;;;;;;;;6277678;22;20071;-81
2021/08/31 14:01:15;;;;;;;4.85;3.40;;;;;;;;;;6278688;22;20023;-82
2021/08/31 14:03:43;;;;;;;5.50;3.50;;;;;;;;;;6278749;22;20368;-81
2021/08/31 14:06:08;;;;;;;5.07;3.67;;;;;;;;;;6250398;22;20057;-82
2021/08/31 14:08:34;;;;;;;3.05;2.75;;;;;;;;;;6284990;22;20837;-82
2021/08/31 14:10:59;;;;;;;3.50;3.15;;;;;;;;;;6276812;22;20364;-81
2021/08/31 14:13:25;;;;;;;4.43;3.60;;;;;;;;;;6276381;22;19999;-81
2021/08/31 14:15:50;;;;;;;4.75;2.97;;;;;;;;;;6283632;22;19995;-82
2021/08/31 14:18:15;;;;;;;5.68;2.90;;;;;;;;;;6281502;22;20003;-81
2021/08/31 14:20:41;;;;;;;4.50;3.10;;;;;;;;;;6281292;22;20023;-82
2021/08/31 14:23:06;;;;;;;6.07;3.17;;;;;;;;;;6251561;22;20521;-82
